sensor_id;sensor_type;location;lat;lon;timestamp;pressure;altitude;pressure_sealevel;temperature;humidity
33075;BME280;19433;51.292;6.868;2023-04-26T00:00:09;100658.50;;;0.63;100.00
33075;BME280;19433;51.292;6.868;2023-04-26T00:02:36;100676.38;;;0.56;100.00
33075;BME280;19433;51.292;6.868;2023-04-26T00:05:01;100669.25;;;0.64;100.00
33075;BME280;19433;51.292;6.868;2023-04-26T00:07:28;100667.38;;;0.65;100.00
33075;BME280;19433;51.292;6.868;2023-04-26T00:09:54;100667.59;;;0.73;100.00
33075;BME280;19433;51.292;6.868;2023-04-26T00:12:20;100671.72;;;0.47;100.00
33075;BME280;19433;51.292;6.868;2023-04-26T00:14:46;100657.97;;;0.39;100.00
33075;BME280;19433;51.292;6.868;2023-04-26T00:17:11;100673.28;;;0.40;100.00
33075;BME280;19433;51.292;6.868;2023-04-26T00:19:36;100649.66;;;0.30;100.00
33075;BME280;19433;51.292;6.868;2023-04-26T00:22:02;100669.19;;;0.24;100.00
33075;BME280;19433;51.292;6.868;2023-04-26T00:24:29;100657.25;;;0.16;100.00
33075;BME280;19433;51.292;6.868;2023-04-26T00:26:55;100658.31;;;0.24;100.00
33075;BME280;19433;51.292;6.868;2023-04-26T00:29:21;100654.69;;;0.14;100.00
33075;BME280;19433;51.292;6.868;2023-04-26T00:31:46;100660.56;;;0.19;100.00
33075;BME280;19433;51.292;6.868;2023-04-26T00:34:11;100654.94;;;0.11;100.00
33075;BME280;19433;51.292;6.868;2023-04-26T00:36:37;100657.00;;;0.19;100.00
33075;BME280;19433;51.292;6.868;2023-04-26T00:39:02;100655.13;;;0.19;100.00
33075;BME280;19433;51.292;6.868;2023-04-26T00:41:28;100645.38;;;0.17;100.00
33075;BME280;19433;51.292;6.868;2023-04-26T00:43:53;100652.69;;;0.16;100.00
33075;BME280;19433;51.292;6.868;2023-04-26T00:46:19;100645.84;;;0.22;100.00
33075;BME280;19433;51.292;6.868;2023-04-26T00:48:45;100641.75;;;0.07;100.00
33075;BME280;19433;51.292;6.868;2023-04-26T00:51:11;100649.31;;;0.03;100.00
33075;BME280;19433;51.292;6.868;2023-04-26T00:53:37;100644.09;;;0.11;100.00
33075;BME280;19433;51.292;6.868;2023-04-26T00:56:05;100641.50;;;-0.11;100.00
33075;BME280;19433;51.292;6.868;2023-04-26T00:58:31;100643.44;;;-0.02;100.00
33075;BME280;19433;51.292;6.868;2023-04-26T01:00:57;100641.44;;;0.00;100.00
33075;BME280;19433;51.292;6.868;2023-04-26T01:03:22;100642.28;;;0.00;100.00
33075;BME280;19433;51.292;6.868;2023-04-26T01:05:48;100637.56;;;0.03;100.00
33075;BME280;19433;51.292;6.868;2023-04-26T01:08:13;100637.19;;;-0.14;100.00
33075;BME280;19433;51.292;6.868;2023-04-26T01:10:41;100641.81;;;-0.25;100.00
33075;BME280;19433;51.292;6.868;2023-04-26T01:13:06;100650.94;;;-0.26;100.00
33075;BME280;19433;51.292;6.868;2023-04-26T01:15:32;100650.81;;;-0.25;100.00
33075;BME280;19433;51.292;6.868;2023-04-26T01:17:58;100655.66;;;-0.28;100.00
33075;BME280;19433;51.292;6.868;2023-04-26T01:20:23;100664.34;;;-0.34;100.00
33075;BME280;19433;51.292;6.868;2023-04-26T01:22:50;100652.88;;;-0.38;100.00
33075;BME280;19433;51.292;6.868;2023-04-26T01:25:16;100664.78;;;-0.29;100.00
33075;BME280;19433;51.292;6.868;2023-04-26T01:27:42;100647.94;;;-0.44;100.00
33075;BME280;19433;51.292;6.868;2023-04-26T01:30:08;100655.13;;;-0.22;100.00
33075;BME280;19433;51.292;6.868;2023-04-26T01:32:34;100658.84;;;-0.23;100.00
33075;BME280;19433;51.292;6.868;2023-04-26T01:34:59;100663.41;;;-0.24;100.00
33075;BME280;19433;51.292;6.868;2023-04-26T01:37:25;100651.75;;;-0.36;100.00
33075;BME280;19433;51.292;6.868;2023-04-26T01:39:51;100653.47;;;-0.34;100.00
33075;BME280;19433;51.292;6.868;2023-04-26T01:42:16;100669.28;;;-0.40;100.00
33075;BME280;19433;51.292;6.868;2023-04-26T01:44:41;100660.88;;;-0.37;100.00
33075;BME280;19433;51.292;6.868;2023-04-26T01:47:07;100653.41;;;-0.23;100.00
33075;BME280;19433;51.292;6.868;2023-04-26T01:49:32;100646.56;;;-0.39;100.00
33075;BME280;19433;51.292;6.868;2023-04-26T01:51:58;100655.78;;;-0.30;100.00
33075;BME280;19433;51.292;6.868;2023-04-26T01:54:23;100649.78;;;-0.33;100.00
33075;BME280;19433;51.292;6.868;2023-04-26T01:56:49;100654.66;;;-0.27;100.00
33075;BME280;19433;51.292;6.868;2023-04-26T01:59:14;100649.09;;;-0.47;100.00
33075;BME280;19433;51.292;6.868;2023-04-26T02:01:42;100650.66;;;-0.44;100.00
33075;BME280;19433;51.292;6.868;2023-04-26T02:04:08;100650.84;;;-0.57;100.00
33075;BME280;19433;51.292;6.868;2023-04-26T02:06:33;100645.34;;;-0.66;100.00
33075;BME280;19433;51.292;6.868;2023-04-26T02:08:59;100646.44;;;-0.69;100.00
33075;BME280;19433;51.292;6.868;2023-04-26T02:11:24;100667.28;;;-0.69;100.00
33075;BME280;19433;51.292;6.868;2023-04-26T02:13:51;100661.97;;;-0.71;100.00
33075;BME280;19433;51.292;6.868;2023-04-26T02:16:16;100666.78;;;-0.75;100.00
33075;BME280;19433;51.292;6.868;2023-04-26T02:18:42;100675.34;;;-0.79;100.00
33075;BME280;19433;51.292;6.868;2023-04-26T02:21:10;100655.63;;;-0.81;100.00
33075;BME280;19433;51.292;6.868;2023-04-26T02:23:35;100647.50;;;-0.92;100.00
33075;BME280;19433;51.292;6.868;2023-04-26T02:26:01;100641.44;;;-0.85;100.00
33075;BME280;19433;51.292;6.868;2023-04-26T02:28:26;100665.06;;;-0.76;100.00
33075;BME280;19433;51.292;6.868;2023-04-26T02:30:51;100648.59;;;-0.84;100.00
33075;BME280;19433;51.292;6.868;2023-04-26T02:33:16;100666.09;;;-0.77;100.00
33075;BME280;19433;51.292;6.868;2023-04-26T02:35:43;100657.59;;;-0.83;100.00
33075;BME280;19433;51.292;6.868;2023-04-26T02:38:08;100664.63;;;-0.81;100.00
33075;BME280;19433;51.292;6.868;2023-04-26T02:40:33;100648.97;;;-0.88;100.00
33075;BME280;19433;51.292;6.868;2023-04-26T02:42:59;100651.19;;;-0.82;100.00
33075;BME280;19433;51.292;6.868;2023-04-26T02:45:24;100656.34;;;-0.79;100.00
33075;BME280;19433;51.292;6.868;2023-04-26T02:47:49;100652.25;;;-0.74;100.00
33075;BME280;19433;51.292;6.868;2023-04-26T02:50:15;100643.28;;;-0.85;100.00
33075;BME280;19433;51.292;6.868;2023-04-26T02:52:40;100656.97;;;-0.87;100.00
33075;BME280;19433;51.292;6.868;2023-04-26T02:55:06;100656.50;;;-0.92;100.00
33075;BME280;19433;51.292;6.868;2023-04-26T02:57:32;100641.94;;;-0.91;100.00
33075;BME280;19433;51.292;6.868;2023-04-26T02:59:57;100639.78;;;-1.08;100.00
33075;BME280;19433;51.292;6.868;2023-04-26T03:02:23;100633.72;;;-1.00;100.00
33075;BME280;19433;51.292;6.868;2023-04-26T03:04:48;100646.28;;;-0.99;100.00
33075;BME280;19433;51.292;6.868;2023-04-26T03:07:14;100651.91;;;-0.80;100.00
33075;BME280;19433;51.292;6.868;2023-04-26T03:09:40;100655.50;;;-0.91;100.00
33075;BME280;19433;51.292;6.868;2023-04-26T03:12:05;100642.22;;;-0.94;100.00
33075;BME280;19433;51.292;6.868;2023-04-26T03:14:31;100643.44;;;-0.98;100.00
33075;BME280;19433;51.292;6.868;2023-04-26T03:16:58;100642.81;;;-1.01;100.00
33075;BME280;19433;51.292;6.868;2023-04-26T03:19:23;100630.78;;;-1.20;100.00
33075;BME280;19433;51.292;6.868;2023-04-26T03:21:48;100645.28;;;-0.98;100.00
33075;BME280;19433;51.292;6.868;2023-04-26T03:24:14;100650.47;;;-0.95;100.00
33075;BME280;19433;51.292;6.868;2023-04-26T03:26:39;100636.81;;;-1.16;100.00
33075;BME280;19433;51.292;6.868;2023-04-26T03:29:04;100630.66;;;-1.07;100.00
33075;BME280;19433;51.292;6.868;2023-04-26T03:31:30;100633.72;;;-1.00;100.00
33075;BME280;19433;51.292;6.868;2023-04-26T03:33:56;100620.91;;;-0.98;100.00
33075;BME280;19433;51.292;6.868;2023-04-26T03:36:21;100615.84;;;-1.03;100.00
33075;BME280;19433;51.292;6.868;2023-04-26T03:38:46;100612.41;;;-1.16;100.00
33075;BME280;19433;51.292;6.868;2023-04-26T03:41:12;100630.66;;;-1.07;100.00
33075;BME280;19433;51.292;6.868;2023-04-26T03:43:38;100625.59;;;-1.12;100.00
33075;BME280;19433;51.292;6.868;2023-04-26T03:46:04;100630.88;;;-0.99;100.00
33075;BME280;19433;51.292;6.868;2023-04-26T03:48:29;100625.66;;;-0.91;100.00
33075;BME280;19433;51.292;6.868;2023-04-26T03:50:55;100628.91;;;-0.97;100.00
33075;BME280;19433;51.292;6.868;2023-04-26T03:53:20;100615.97;;;-1.04;100.00
33075;BME280;19433;51.292;6.868;2023-04-26T03:55:45;100628.25;;;-0.89;100.00
33075;BME280;19433;51.292;6.868;2023-04-26T03:58:10;100626.06;;;-1.07;100.00
33075;BME280;19433;51.292;6.868;2023-04-26T04:00:37;100637.25;;;-0.89;100.00
33075;BME280;19433;51.292;6.868;2023-04-26T04:03:02;100613.53;;;-1.19;100.00
33075;BME280;19433;51.292;6.868;2023-04-26T04:05:28;100620.81;;;-1.08;100.00
33075;BME280;19433;51.292;6.868;2023-04-26T04:07:53;100627.31;;;-1.22;100.00
33075;BME280;19433;51.292;6.868;2023-04-26T04:10:20;100624.88;;;-1.14;100.00
33075;BME280;19433;51.292;6.868;2023-04-26T04:12:47;100626.97;;;-1.17;100.00
33075;BME280;19433;51.292;6.868;2023-04-26T04:15:12;100628.72;;;-1.27;100.00
33075;BME280;19433;51.292;6.868;2023-04-26T04:17:37;100637.19;;;-1.21;100.00
33075;BME280;19433;51.292;6.868;2023-04-26T04:20:03;100628.28;;;-1.00;100.00
33075;BME280;19433;51.292;6.868;2023-04-26T04:22:31;100639.84;;;-0.87;100.00
33075;BME280;19433;51.292;6.868;2023-04-26T04:24:57;100631.75;;;-0.98;100.00
33075;BME280;19433;51.292;6.868;2023-04-26T04:27:22;100647.09;;;-0.88;100.00
33075;BME280;19433;51.292;6.868;2023-04-26T04:29:47;100651.78;;;-0.90;100.00
33075;BME280;19433;51.292;6.868;2023-04-26T04:32:13;100647.63;;;-0.94;100.00
33075;BME280;19433;51.292;6.868;2023-04-26T04:34:39;100652.31;;;-0.96;100.00
33075;BME280;19433;51.292;6.868;2023-04-26T04:37:05;100647.34;;;-0.91;100.00
33075;BME280;19433;51.292;6.868;2023-04-26T04:39:31;100639.63;;;-0.95;100.00
33075;BME280;19433;51.292;6.868;2023-04-26T04:41:56;100650.56;;;-0.86;100.00
33075;BME280;19433;51.292;6.868;2023-04-26T04:44:22;100640.19;;;-0.81;100.00
33075;BME280;19433;51.292;6.868;2023-04-26T04:46:48;100639.03;;;-0.67;100.00
33075;BME280;19433;51.292;6.868;2023-04-26T04:49:13;100629.69;;;-0.74;100.00
33075;BME280;19433;51.292;6.868;2023-04-26T04:51:39;100649.03;;;-0.67;100.00
33075;BME280;19433;51.292;6.868;2023-04-26T04:54:17;100654.34;;;-0.45;100.00
33075;BME280;19433;51.292;6.868;2023-04-26T04:56:43;100666.06;;;-0.45;100.00
33075;BME280;19433;51.292;6.868;2023-04-26T04:59:10;100669.41;;;-0.41;100.00
33075;BME280;19433;51.292;6.868;2023-04-26T05:01:36;100658.13;;;-0.57;100.00
33075;BME280;19433;51.292;6.868;2023-04-26T05:04:04;100674.88;;;-0.52;100.00
33075;BME280;19433;51.292;6.868;2023-04-26T05:06:29;100659.34;;;-0.29;100.00
33075;BME280;19433;51.292;6.868;2023-04-26T05:08:58;100667.75;;;-0.01;100.00
33075;BME280;19433;51.292;6.868;2023-04-26T05:11:24;100662.88;;;0.03;100.00
33075;BME280;19433;51.292;6.868;2023-04-26T05:13:50;100670.22;;;0.33;100.00
33075;BME280;19433;51.292;6.868;2023-04-26T05:16:15;100674.19;;;0.50;100.00
33075;BME280;19433;51.292;6.868;2023-04-26T05:18:41;100666.13;;;0.39;100.00
33075;BME280;19433;51.292;6.868;2023-04-26T05:21:06;100677.72;;;0.41;100.00
33075;BME280;19433;51.292;6.868;2023-04-26T05:23:32;100686.69;;;0.62;100.00
33075;BME280;19433;51.292;6.868;2023-04-26T05:26:05;100685.16;;;0.69;100.00
33075;BME280;19433;51.292;6.868;2023-04-26T05:28:31;100686.34;;;0.76;100.00
33075;BME280;19433;51.292;6.868;2023-04-26T05:30:57;100694.94;;;0.81;100.00
33075;BME280;19433;51.292;6.868;2023-04-26T05:33:23;100685.13;;;0.99;100.00
33075;BME280;19433;51.292;6.868;2023-04-26T05:35:48;100680.03;;;1.06;100.00
33075;BME280;19433;51.292;6.868;2023-04-26T05:38:14;100694.78;;;1.23;100.00
33075;BME280;19433;51.292;6.868;2023-04-26T05:40:39;100693.13;;;1.41;100.00
33075;BME280;19433;51.292;6.868;2023-04-26T05:43:05;100704.47;;;1.46;100.00
33075;BME280;19433;51.292;6.868;2023-04-26T05:45:30;100687.25;;;1.46;100.00
33075;BME280;19433;51.292;6.868;2023-04-26T05:47:55;100699.91;;;1.75;100.00
33075;BME280;19433;51.292;6.868;2023-04-26T05:50:21;100708.94;;;1.86;100.00
33075;BME280;19433;51.292;6.868;2023-04-26T05:52:46;100709.50;;;1.99;100.00
33075;BME280;19433;51.292;6.868;2023-04-26T05:55:11;100707.31;;;2.31;100.00
33075;BME280;19433;51.292;6.868;2023-04-26T05:57:37;100710.78;;;2.33;100.00
33075;BME280;19433;51.292;6.868;2023-04-26T06:00:03;100710.59;;;2.44;100.00
33075;BME280;19433;51.292;6.868;2023-04-26T06:02:29;100703.00;;;2.58;100.00
33075;BME280;19433;51.292;6.868;2023-04-26T06:04:54;100714.84;;;2.76;100.00
33075;BME280;19433;51.292;6.868;2023-04-26T06:07:21;100713.31;;;3.01;100.00
33075;BME280;19433;51.292;6.868;2023-04-26T06:09:46;100717.47;;;3.05;100.00
33075;BME280;19433;51.292;6.868;2023-04-26T06:12:11;100720.00;;;3.16;100.00
33075;BME280;19433;51.292;6.868;2023-04-26T06:14:37;100728.56;;;3.31;100.00
33075;BME280;19433;51.292;6.868;2023-04-26T06:17:02;100724.94;;;3.58;100.00
33075;BME280;19433;51.292;6.868;2023-04-26T06:19:27;100726.84;;;3.75;100.00
33075;BME280;19433;51.292;6.868;2023-04-26T06:21:53;100727.25;;;3.80;100.00
33075;BME280;19433;51.292;6.868;2023-04-26T06:24:19;100727.25;;;4.15;100.00
33075;BME280;19433;51.292;6.868;2023-04-26T06:26:45;100728.75;;;4.28;100.00
33075;BME280;19433;51.292;6.868;2023-04-26T06:29:10;100733.97;;;4.65;100.00
33075;BME280;19433;51.292;6.868;2023-04-26T06:31:35;100738.13;;;4.94;100.00
33075;BME280;19433;51.292;6.868;2023-04-26T06:34:01;100743.31;;;5.40;100.00
33075;BME280;19433;51.292;6.868;2023-04-26T06:36:27;100752.78;;;5.45;99.54
33075;BME280;19433;51.292;6.868;2023-04-26T06:38:52;100751.00;;;5.78;100.00
33075;BME280;19433;51.292;6.868;2023-04-26T06:41:18;100743.41;;;6.30;100.00
33075;BME280;19433;51.292;6.868;2023-04-26T06:43:44;100754.06;;;6.58;92.99
33075;BME280;19433;51.292;6.868;2023-04-26T06:46:09;100756.94;;;6.97;89.97
33075;BME280;19433;51.292;6.868;2023-04-26T06:48:35;100745.59;;;7.55;92.92
33075;BME280;19433;51.292;6.868;2023-04-26T06:51:06;100746.88;;;8.60;95.63
33075;BME280;19433;51.292;6.868;2023-04-26T06:53:33;100754.13;;;10.08;80.79
33075;BME280;19433;51.292;6.868;2023-04-26T06:55:58;100756.44;;;11.74;74.38
33075;BME280;19433;51.292;6.868;2023-04-26T06:58:24;100761.00;;;13.48;61.35
33075;BME280;19433;51.292;6.868;2023-04-26T07:00:49;100756.28;;;14.64;50.86
33075;BME280;19433;51.292;6.868;2023-04-26T07:03:14;100764.72;;;15.32;48.06
33075;BME280;19433;51.292;6.868;2023-04-26T07:05:40;100761.16;;;16.82;45.79
33075;BME280;19433;51.292;6.868;2023-04-26T07:08:05;100767.72;;;17.41;43.98
33075;BME280;19433;51.292;6.868;2023-04-26T07:10:30;100770.13;;;17.49;42.00
33075;BME280;19433;51.292;6.868;2023-04-26T07:12:56;100787.25;;;18.11;40.82
33075;BME280;19433;51.292;6.868;2023-04-26T07:15:21;100782.22;;;18.65;38.97
33075;BME280;19433;51.292;6.868;2023-04-26T07:17:46;100783.34;;;18.52;36.92
33075;BME280;19433;51.292;6.868;2023-04-26T07:20:12;100777.59;;;18.19;37.24
33075;BME280;19433;51.292;6.868;2023-04-26T07:22:39;100775.69;;;18.08;37.35
33075;BME280;19433;51.292;6.868;2023-04-26T07:25:05;100774.88;;;18.47;36.56
33075;BME280;19433;51.292;6.868;2023-04-26T07:27:30;100774.09;;;18.64;36.34
33075;BME280;19433;51.292;6.868;2023-04-26T07:29:56;100773.06;;;18.41;36.41
33075;BME280;19433;51.292;6.868;2023-04-26T07:32:21;100769.44;;;19.64;34.30
33075;BME280;19433;51.292;6.868;2023-04-26T07:34:47;100766.50;;;18.76;34.65
33075;BME280;19433;51.292;6.868;2023-04-26T07:37:12;100762.88;;;17.72;36.48
33075;BME280;19433;51.292;6.868;2023-04-26T07:39:37;100760.28;;;16.22;38.62
33075;BME280;19433;51.292;6.868;2023-04-26T07:42:03;100760.22;;;15.74;39.85
33075;BME280;19433;51.292;6.868;2023-04-26T07:44:28;100765.81;;;16.59;38.57
33075;BME280;19433;51.292;6.868;2023-04-26T07:46:53;100763.94;;;17.36;37.35
33075;BME280;19433;51.292;6.868;2023-04-26T07:49:19;100759.09;;;17.54;37.84
33075;BME280;19433;51.292;6.868;2023-04-26T07:51:44;100776.09;;;17.41;37.29
33075;BME280;19433;51.292;6.868;2023-04-26T07:54:10;100767.13;;;17.74;37.00
33075;BME280;19433;51.292;6.868;2023-04-26T07:56:35;100759.88;;;16.97;35.58
33075;BME280;19433;51.292;6.868;2023-04-26T07:59:00;100765.34;;;16.92;36.59
33075;BME280;19433;51.292;6.868;2023-04-26T08:01:26;100771.16;;;15.94;37.27
33075;BME280;19433;51.292;6.868;2023-04-26T08:03:52;100760.44;;;15.29;39.07
33075;BME280;19433;51.292;6.868;2023-04-26T08:06:17;100763.09;;;15.24;40.95
33075;BME280;19433;51.292;6.868;2023-04-26T08:08:43;100757.28;;;15.01;41.03
33075;BME280;19433;51.292;6.868;2023-04-26T08:11:09;100751.69;;;14.51;41.06
33075;BME280;19433;51.292;6.868;2023-04-26T08:13:34;100753.97;;;13.45;42.69
33075;BME280;19433;51.292;6.868;2023-04-26T08:16:00;100755.94;;;14.02;41.92
33075;BME280;19433;51.292;6.868;2023-04-26T08:18:25;100751.41;;;14.84;40.75
33075;BME280;19433;51.292;6.868;2023-04-26T08:20:50;100754.53;;;15.87;39.02
33075;BME280;19433;51.292;6.868;2023-04-26T08:23:16;100752.16;;;17.57;35.92
33075;BME280;19433;51.292;6.868;2023-04-26T08:25:43;100776.75;;;19.65;33.68
33075;BME280;19433;51.292;6.868;2023-04-26T08:28:09;100777.03;;;18.85;30.69
33075;BME280;19433;51.292;6.868;2023-04-26T08:30:38;100764.97;;;16.58;34.74
33075;BME280;19433;51.292;6.868;2023-04-26T08:33:03;100757.91;;;16.07;35.48
33075;BME280;19433;51.292;6.868;2023-04-26T08:35:29;100761.28;;;15.55;36.83
33075;BME280;19433;51.292;6.868;2023-04-26T08:37:54;100764.72;;;15.57;38.51
33075;BME280;19433;51.292;6.868;2023-04-26T08:40:22;100767.03;;;15.60;37.81
33075;BME280;19433;51.292;6.868;2023-04-26T08:42:51;100767.44;;;15.38;38.08
33075;BME280;19433;51.292;6.868;2023-04-26T08:45:20;100769.19;;;14.52;37.46
33075;BME280;19433;51.292;6.868;2023-04-26T08:47:52;100755.91;;;14.54;38.73
33075;BME280;19433;51.292;6.868;2023-04-26T08:50:22;100762.78;;;14.51;39.20
33075;BME280;19433;51.292;6.868;2023-04-26T08:52:49;100758.16;;;13.81;39.58
33075;BME280;19433;51.292;6.868;2023-04-26T08:55:16;100753.59;;;13.15;41.29
33075;BME280;19433;51.292;6.868;2023-04-26T08:57:43;100758.78;;;12.24;42.92
33075;BME280;19433;51.292;6.868;2023-04-26T09:00:10;100754.16;;;12.58;42.40
33075;BME280;19433;51.292;6.868;2023-04-26T09:02:40;100763.16;;;14.61;39.12
33075;BME280;19433;51.292;6.868;2023-04-26T09:05:09;100772.03;;;16.42;34.69
33075;BME280;19433;51.292;6.868;2023-04-26T09:10:05;100773.38;;;17.11;33.78
33075;BME280;19433;51.292;6.868;2023-04-26T09:12:31;100770.13;;;18.48;31.75
33075;BME280;19433;51.292;6.868;2023-04-26T09:14:57;100759.44;;;17.35;34.07
33075;BME280;19433;51.292;6.868;2023-04-26T09:17:38;100775.09;;;16.52;34.21
33075;BME280;19433;51.292;6.868;2023-04-26T09:22:43;100768.31;;;14.06;38.92
33075;BME280;19433;51.292;6.868;2023-04-26T09:25:09;100751.69;;;13.93;39.45
33075;BME280;19433;51.292;6.868;2023-04-26T09:27:40;100765.91;;;12.73;42.02
33075;BME280;19433;51.292;6.868;2023-04-26T09:30:07;100759.31;;;13.00;42.63
33075;BME280;19433;51.292;6.868;2023-04-26T09:32:53;100761.19;;;13.72;41.46
33075;BME280;19433;51.292;6.868;2023-04-26T09:35:31;100763.94;;;14.68;41.17
33075;BME280;19433;51.292;6.868;2023-04-26T09:38:17;100758.00;;;15.64;37.46
33075;BME280;19433;51.292;6.868;2023-04-26T09:40:44;100755.22;;;15.64;36.40
33075;BME280;19433;51.292;6.868;2023-04-26T09:43:11;100745.81;;;16.32;36.61
33075;BME280;19433;51.292;6.868;2023-04-26T09:45:57;100756.59;;;18.16;34.14
33075;BME280;19433;51.292;6.868;2023-04-26T09:51:14;100760.09;;;18.52;33.06
33075;BME280;19433;51.292;6.868;2023-04-26T09:53:44;100754.06;;;16.98;33.59
33075;BME280;19433;51.292;6.868;2023-04-26T09:56:12;100749.25;;;16.45;36.46
33075;BME280;19433;51.292;6.868;2023-04-26T10:01:18;100738.03;;;16.04;36.30
33075;BME280;19433;51.292;6.868;2023-04-26T10:03:44;100736.28;;;15.05;35.03
33075;BME280;19433;51.292;6.868;2023-04-26T10:06:11;100736.91;;;14.06;36.39
33075;BME280;19433;51.292;6.868;2023-04-26T10:08:36;100736.16;;;14.24;37.83
33075;BME280;19433;51.292;6.868;2023-04-26T10:11:05;100745.44;;;17.00;33.00
33075;BME280;19433;51.292;6.868;2023-04-26T10:13:40;100736.84;;;17.95;30.20
33075;BME280;19433;51.292;6.868;2023-04-26T10:16:06;100746.72;;;18.25;31.46
33075;BME280;19433;51.292;6.868;2023-04-26T10:18:32;100743.78;;;17.10;34.16
33075;BME280;19433;51.292;6.868;2023-04-26T10:21:06;100743.72;;;16.27;35.53
33075;BME280;19433;51.292;6.868;2023-04-26T10:23:35;100738.28;;;16.92;34.77
33075;BME280;19433;51.292;6.868;2023-04-26T10:26:01;100741.06;;;18.09;33.96
33075;BME280;19433;51.292;6.868;2023-04-26T10:31:05;100734.09;;;18.96;30.94
33075;BME280;19433;51.292;6.868;2023-04-26T10:33:32;100743.66;;;17.87;31.11
33075;BME280;19433;51.292;6.868;2023-04-26T10:36:11;100740.16;;;18.20;29.63
33075;BME280;19433;51.292;6.868;2023-04-26T10:39:16;100743.78;;;19.94;28.63
33075;BME280;19433;51.292;6.868;2023-04-26T10:41:32;100739.97;;;20.44;28.59
33075;BME280;19433;51.292;6.868;2023-04-26T10:43:59;100747.72;;;20.59;27.60
33075;BME280;19433;51.292;6.868;2023-04-26T10:46:38;100743.16;;;20.31;27.75
33075;BME280;19433;51.292;6.868;2023-04-26T10:49:17;100735.56;;;19.16;31.09
33075;BME280;19433;51.292;6.868;2023-04-26T10:52:11;100727.97;;;17.63;31.66
33075;BME280;19433;51.292;6.868;2023-04-26T10:54:53;100730.88;;;17.91;33.06
33075;BME280;19433;51.292;6.868;2023-04-26T10:57:19;100730.47;;;18.11;32.15
33075;BME280;19433;51.292;6.868;2023-04-26T11:02:43;100714.66;;;18.73;30.23
33075;BME280;19433;51.292;6.868;2023-04-26T11:05:08;100708.47;;;18.14;33.75
33075;BME280;19433;51.292;6.868;2023-04-26T11:07:37;100717.56;;;17.70;33.29
33075;BME280;19433;51.292;6.868;2023-04-26T11:10:07;100717.34;;;16.71;33.14
33075;BME280;19433;51.292;6.868;2023-04-26T11:12:32;100717.53;;;17.00;33.29
33075;BME280;19433;51.292;6.868;2023-04-26T11:14:58;100716.00;;;15.66;33.36
33075;BME280;19433;51.292;6.868;2023-04-26T11:17:25;100712.38;;;12.99;42.03
33075;BME280;19433;51.292;6.868;2023-04-26T11:19:50;100705.97;;;14.40;38.93
33075;BME280;19433;51.292;6.868;2023-04-26T11:22:15;100708.75;;;14.34;40.31
33075;BME280;19433;51.292;6.868;2023-04-26T11:24:41;100707.72;;;14.91;38.42
33075;BME280;19433;51.292;6.868;2023-04-26T11:27:07;100696.00;;;13.82;39.61
33075;BME280;19433;51.292;6.868;2023-04-26T11:29:33;100706.84;;;14.34;39.71
33075;BME280;19433;51.292;6.868;2023-04-26T11:31:59;100711.72;;;14.70;38.61
33075;BME280;19433;51.292;6.868;2023-04-26T11:34:30;100709.03;;;14.64;38.27
33075;BME280;19433;51.292;6.868;2023-04-26T11:36:56;100693.16;;;13.95;37.59
33075;BME280;19433;51.292;6.868;2023-04-26T11:39:21;100691.06;;;14.60;36.91
33075;BME280;19433;51.292;6.868;2023-04-26T11:41:47;100698.41;;;14.79;39.79
33075;BME280;19433;51.292;6.868;2023-04-26T11:44:17;100698.34;;;14.86;37.62
33075;BME280;19433;51.292;6.868;2023-04-26T11:46:42;100696.66;;;15.09;39.51
33075;BME280;19433;51.292;6.868;2023-04-26T11:49:08;100694.97;;;15.27;39.45
33075;BME280;19433;51.292;6.868;2023-04-26T11:51:34;100686.13;;;15.11;37.27
33075;BME280;19433;51.292;6.868;2023-04-26T11:53:59;100680.47;;;15.61;35.86
33075;BME280;19433;51.292;6.868;2023-04-26T11:56:25;100689.09;;;16.38;33.46
33075;BME280;19433;51.292;6.868;2023-04-26T11:58:51;100687.06;;;17.56;32.75
33075;BME280;19433;51.292;6.868;2023-04-26T12:03:56;100703.25;;;20.51;31.16
33075;BME280;19433;51.292;6.868;2023-04-26T12:06:28;100706.44;;;21.55;27.14
33075;BME280;19433;51.292;6.868;2023-04-26T12:08:55;100709.03;;;19.40;27.77
33075;BME280;19433;51.292;6.868;2023-04-26T12:11:20;100712.53;;;19.30;29.52
33075;BME280;19433;51.292;6.868;2023-04-26T12:13:46;100704.16;;;18.97;31.51
33075;BME280;19433;51.292;6.868;2023-04-26T12:16:12;100709.31;;;18.15;31.49
33075;BME280;19433;51.292;6.868;2023-04-26T12:18:39;100704.16;;;16.78;29.74
33075;BME280;19433;51.292;6.868;2023-04-26T12:21:04;100698.53;;;16.67;32.03
33075;BME280;19433;51.292;6.868;2023-04-26T12:23:39;100700.28;;;16.19;32.02
33075;BME280;19433;51.292;6.868;2023-04-26T12:26:05;100701.28;;;16.25;32.10
33075;BME280;19433;51.292;6.868;2023-04-26T12:28:30;100686.66;;;15.63;32.41
33075;BME280;19433;51.292;6.868;2023-04-26T12:30:56;100696.25;;;15.86;33.09
33075;BME280;19433;51.292;6.868;2023-04-26T12:33:21;100690.28;;;15.64;32.84
33075;BME280;19433;51.292;6.868;2023-04-26T12:35:48;100689.41;;;14.14;34.60
33075;BME280;19433;51.292;6.868;2023-04-26T12:38:13;100688.22;;;13.46;35.80
33075;BME280;19433;51.292;6.868;2023-04-26T12:40:40;100693.16;;;13.95;35.81
33075;BME280;19433;51.292;6.868;2023-04-26T12:43:06;100687.84;;;13.87;39.37
33075;BME280;19433;51.292;6.868;2023-04-26T12:45:31;100681.16;;;13.56;36.41
33075;BME280;19433;51.292;6.868;2023-04-26T12:47:56;100692.19;;;14.14;36.69
33075;BME280;19433;51.292;6.868;2023-04-26T12:50:22;100697.19;;;13.99;35.60
33075;BME280;19433;51.292;6.868;2023-04-26T12:52:47;100691.06;;;15.09;33.32
33075;BME280;19433;51.292;6.868;2023-04-26T12:55:13;100692.22;;;16.30;33.55
33075;BME280;19433;51.292;6.868;2023-04-26T12:57:41;100687.06;;;17.68;31.93
33075;BME280;19433;51.292;6.868;2023-04-26T13:00:09;100691.50;;;17.92;29.69
33075;BME280;19433;51.292;6.868;2023-04-26T13:02:36;100698.38;;;18.87;29.65